Strona główna
METAR-TAF:

METAR-TAF

Lotnisko :

Bowling Green, Kentucky, Stany Zjednoczone

Szerokość geograficzna: 36-57-52N, Długość geograficzna: 086-25-10W, wysokość: 167 m

Aktualna obserwacja pogody

Raport powstał 26 minut temu, godzina 00:53 UTC
Wiatr 5 kt od północny zachód
Temperatura 19°C
Wilgotność 52%
Ciśnienie 1016 hPa
Widzialność: 16.1 km
bezchmurnie

METAR: KBWG 050053Z AUTO 32005KT 10SM CLR 19/09 A3000 RMK AO2 SLP155 T01890094

czas: 20:19 (01:19 UTC)

Prognoza

Raport powstał 1 godzina i 59 minut temu, godzina 23:20 UTC
Prognoza ważna od 05 godzina 00 UTC do 05 godzina 24 UTC
Wiatr 5 kt z kierunków zmiennych
Widzialność: 10 km
Przerywane chmury na wysokości 7000 ft
Przejściowo
od 05 godzina 08 UTC do 05 godzina 12 UTC
Widzialność: 8.0 km
Rozproszone chmury na wysokości 1500 ft
zamglenie

TAF: KBWG 042320Z 0500/0524 VRB05KT P6SM BKN070 TEMPO 0508/0512 5SM BR SCT015

Obserwacja i prognoza pogody dla ponad 4000 lotnisk (raport METAR i TAF).

Dostępne stacje oznaczono żółtymi i czerwonymi punktami na mapie.

Najedź kursorem aby zobaczyć nazwę stacji.

Kliknij aby zobaczyć obserwacje i prognozy pogody.

Aby zmienić mapę: kliknij na zielony przycisk z czarnym krzyżykiem, aby powiększyć; na zielony przycisk z myślnikiem, aby pomniejszyć; na zielone strzałki, aby przejść do map sąsiednich.


METAR-TAF: